createdAt,value
2022-10-04T00:01:26.254Z,12.85
2022-10-04T00:04:01.999Z,13.90
2022-10-04T00:06:28.750Z,12.35
2022-10-04T00:08:58.762Z,11.13
2022-10-04T00:11:27.402Z,12.50
2022-10-04T00:13:58.661Z,10.95
2022-10-04T00:16:32.847Z,11.27
2022-10-04T00:19:14.609Z,10.52
2022-10-04T00:21:56.383Z,10.55
2022-10-04T00:24:30.611Z,10.23
2022-10-04T00:27:20.392Z,10.80
2022-10-04T00:30:12.813Z,10.40
2022-10-04T00:32:39.512Z,11.35
2022-10-04T00:35:24.456Z,11.10
2022-10-04T00:37:59.119Z,10.88
2022-10-04T00:40:31.591Z,10.35
2022-10-04T00:42:59.334Z,10.20
2022-10-04T00:45:46.240Z,10.27
2022-10-04T00:48:18.876Z,11.82
2022-10-04T00:50:48.951Z,9.95
2022-10-04T00:53:22.319Z,9.85
2022-10-04T00:55:54.504Z,10.85
2022-10-04T00:58:26.181Z,10.60
2022-10-04T01:00:53.943Z,9.43
2022-10-04T01:03:40.586Z,10.93
2022-10-04T01:06:09.164Z,9.55
2022-10-04T01:08:38.393Z,9.70
2022-10-04T01:11:07.335Z,9.40
2022-10-04T01:13:36.876Z,10.45
2022-10-04T01:16:07.580Z,10.02
2022-10-04T01:18:35.403Z,10.25
2022-10-04T01:21:23.296Z,10.32
2022-10-04T01:23:53.541Z,9.82
2022-10-04T01:26:35.180Z,10.13
2022-10-04T01:29:05.343Z,9.93
2022-10-04T01:31:33.047Z,9.80
2022-10-04T01:34:05.295Z,8.27
2022-10-04T01:36:32.363Z,9.57
2022-10-04T01:38:59.240Z,9.50
2022-10-04T01:41:38.689Z,9.75
2022-10-04T01:44:06.609Z,8.77
2022-10-04T01:46:34.872Z,9.43
2022-10-04T01:49:02.998Z,8.98
2022-10-04T01:51:43.591Z,11.02
2022-10-04T01:54:12.799Z,10.65
2022-10-04T01:56:42.740Z,10.10
2022-10-04T01:59:14.269Z,10.85
2022-10-04T02:01:50.474Z,13.23
2022-10-04T02:04:22.320Z,13.60
2022-10-04T02:06:54.135Z,12.30
2022-10-04T02:09:25.393Z,11.40
2022-10-04T02:11:53.089Z,11.75
2022-10-04T02:14:22.124Z,12.02
2022-10-04T02:16:53.872Z,11.02
2022-10-04T02:19:23.082Z,10.85
2022-10-04T02:21:49.883Z,11.48
2022-10-04T02:24:16.947Z,12.38
2022-10-04T02:26:48.671Z,11.55
2022-10-04T02:29:15.162Z,12.77
2022-10-04T02:32:00.333Z,12.60
2022-10-04T02:34:26.957Z,13.38
2022-10-04T02:36:53.421Z,11.30
2022-10-04T02:39:24.949Z,11.38
2022-10-04T02:41:54.647Z,12.63
2022-10-04T02:44:36.627Z,11.93
2022-10-04T02:47:06.165Z,11.60
2022-10-04T02:49:41.921Z,12.38
2022-10-04T02:52:31.565Z,11.57
2022-10-04T02:55:02.634Z,10.50
2022-10-04T02:57:30.695Z,10.75
2022-10-04T03:00:13.686Z,10.75
2022-10-04T03:02:40.673Z,9.60
2022-10-04T03:05:11.837Z,9.05
2022-10-04T03:07:38.987Z,9.45
2022-10-04T03:10:11.017Z,9.70
2022-10-04T03:12:38.983Z,10.15
2022-10-04T03:15:12.892Z,10.05
2022-10-04T03:17:43.107Z,9.90
2022-10-04T03:20:14.586Z,9.27
2022-10-04T03:22:46.932Z,9.80
2022-10-04T03:25:18.673Z,9.32
2022-10-04T03:27:45.235Z,10.25
2022-10-04T03:30:15.591Z,9.15
2022-10-04T03:32:42.173Z,9.32
2022-10-04T03:35:17.699Z,8.90
2022-10-04T03:37:44.276Z,9.80
2022-10-04T03:40:11.449Z,9.50
2022-10-04T03:42:38.820Z,11.23
2022-10-04T03:45:11.068Z,10.85
2022-10-04T03:47:38.951Z,10.85
2022-10-04T03:50:12.232Z,11.48
2022-10-04T03:52:39.224Z,10.30
2022-10-04T03:55:07.087Z,9.60
2022-10-04T03:57:34.637Z,10.18
2022-10-04T04:00:01.630Z,10.35
2022-10-04T04:02:45.790Z,11.05
2022-10-04T04:05:32.850Z,10.07
2022-10-04T04:08:20.599Z,10.75
2022-10-04T04:10:49.683Z,12.98
2022-10-04T04:13:38.603Z,10.45
2022-10-04T04:16:05.605Z,10.13
2022-10-04T04:18:33.963Z,9.63
2022-10-04T04:21:01.972Z,9.20
2022-10-04T04:23:44.948Z,9.07
2022-10-04T04:26:17.547Z,10.27
2022-10-04T04:29:06.259Z,10.63
2022-10-04T04:31:38.373Z,10.23
2022-10-04T04:34:06.485Z,13.43
2022-10-04T04:36:39.733Z,13.02
2022-10-04T04:39:25.756Z,11.85
2022-10-04T04:41:52.675Z,11.27
2022-10-04T04:44:19.489Z,11.55
2022-10-04T04:46:46.712Z,11.55
2022-10-04T04:49:15.507Z,12.20
2022-10-04T04:51:46.438Z,13.57
2022-10-04T04:54:13.184Z,13.45
2022-10-04T04:56:41.362Z,13.27
2022-10-04T04:59:08.281Z,13.55
2022-10-04T05:01:35.833Z,13.82
2022-10-04T05:04:08.399Z,13.45
2022-10-04T05:06:35.816Z,12.00
2022-10-04T05:09:03.008Z,14.82
2022-10-04T05:11:31.126Z,13.55
2022-10-04T05:14:00.946Z,15.68
2022-10-04T05:16:48.390Z,14.63
2022-10-04T05:19:26.926Z,13.20
2022-10-04T05:21:54.261Z,13.65
2022-10-04T05:24:26.265Z,13.57
2022-10-04T05:26:54.273Z,13.73
2022-10-04T05:29:23.397Z,14.77
2022-10-04T05:31:56.180Z,14.70
2022-10-04T05:34:24.047Z,15.07
2022-10-04T05:36:53.559Z,16.30
2022-10-04T05:39:23.296Z,15.45
2022-10-04T05:41:49.729Z,14.60
2022-10-04T05:44:26.279Z,14.27
2022-10-04T05:46:54.205Z,15.73
2022-10-04T05:49:22.251Z,15.70
2022-10-04T05:52:01.033Z,16.08
2022-10-04T05:54:28.953Z,15.60
2022-10-04T05:57:09.602Z,15.57
2022-10-04T06:00:04.931Z,17.45
2022-10-04T06:02:54.929Z,17.08
2022-10-04T06:05:23.583Z,18.38
2022-10-04T06:08:09.673Z,18.77
2022-10-04T06:10:46.973Z,17.38
2022-10-04T06:13:26.133Z,17.70
2022-10-04T06:16:12.250Z,17.50
2022-10-04T06:18:57.797Z,17.13
2022-10-04T06:21:36.340Z,15.88
2022-10-04T06:24:05.311Z,18.27
2022-10-04T06:26:37.493Z,17.33
2022-10-04T06:29:10.548Z,17.35
2022-10-04T06:31:44.857Z,17.02
2022-10-04T06:34:14.677Z,16.70
2022-10-04T06:36:47.332Z,16.60
2022-10-04T06:39:36.033Z,16.10
2022-10-04T06:42:19.777Z,15.25
2022-10-04T06:44:49.491Z,16.65
2022-10-04T06:47:22.966Z,15.32
2022-10-04T06:50:08.300Z,16.33
2022-10-04T06:52:49.937Z,14.35
2022-10-04T06:55:25.799Z,15.38
2022-10-04T06:58:10.786Z,14.50
2022-10-04T07:00:46.177Z,15.35
2022-10-04T07:03:17.859Z,14.13
2022-10-04T07:05:46.225Z,13.38
2022-10-04T07:08:31.068Z,14.00
2022-10-04T07:11:03.715Z,14.05
2022-10-04T07:13:50.334Z,13.93
2022-10-04T07:16:16.818Z,12.70
2022-10-04T07:18:52.549Z,12.82
2022-10-04T07:21:21.867Z,12.85
2022-10-04T07:24:02.550Z,12.70
2022-10-04T07:26:49.278Z,12.43
2022-10-04T07:29:27.543Z,12.68
2022-10-04T07:32:06.089Z,12.35
2022-10-04T07:34:40.064Z,14.00
2022-10-04T07:37:10.574Z,13.27
2022-10-04T07:39:45.761Z,12.77
2022-10-04T07:42:18.313Z,13.90
2022-10-04T07:44:48.459Z,12.50
2022-10-04T07:47:20.161Z,12.77
2022-10-04T07:49:49.403Z,11.50
2022-10-04T07:52:18.952Z,13.00
2022-10-04T07:55:05.562Z,13.23
2022-10-04T07:57:50.369Z,13.77
2022-10-04T08:00:22.651Z,14.07
2022-10-04T08:03:04.847Z,14.35
2022-10-04T08:05:34.713Z,14.55
2022-10-04T08:08:14.066Z,14.45
2022-10-04T08:10:45.893Z,15.20
2022-10-04T08:13:28.055Z,13.32
2022-10-04T08:15:59.024Z,14.10
2022-10-04T08:18:30.541Z,13.85
2022-10-04T08:20:59.292Z,14.40
2022-10-04T08:23:44.747Z,15.25
2022-10-04T08:26:29.906Z,15.13
2022-10-04T08:29:27.024Z,14.57
2022-10-04T08:32:06.214Z,13.40
2022-10-04T08:34:42.180Z,13.70
2022-10-04T08:37:27.945Z,14.70
2022-10-04T08:40:00.625Z,14.02
2022-10-04T08:42:45.562Z,15.35
2022-10-04T08:45:21.248Z,14.48
2022-10-04T08:48:07.033Z,14.15
2022-10-04T08:51:02.906Z,13.60
2022-10-04T08:53:48.507Z,15.32
2022-10-04T08:56:21.283Z,11.77
2022-10-04T08:59:00.372Z,11.05
2022-10-04T09:01:51.275Z,10.70
2022-10-04T09:04:36.961Z,10.57
2022-10-04T09:07:18.727Z,10.25
2022-10-04T09:09:48.064Z,12.18
2022-10-04T09:12:33.678Z,10.55
2022-10-04T09:15:13.438Z,10.25
2022-10-04T09:17:47.102Z,10.27
2022-10-04T09:20:37.827Z,10.52
2022-10-04T09:23:08.266Z,10.48
2022-10-04T09:25:53.463Z,10.60
2022-10-04T09:28:26.110Z,8.13
2022-10-04T09:30:58.502Z,8.68
2022-10-04T09:33:30.890Z,8.07
2022-10-04T09:36:27.559Z,8.57
2022-10-04T09:39:28.975Z,8.30
2022-10-04T09:41:52.962Z,8.52
2022-10-04T09:44:46.222Z,9.18
2022-10-04T09:47:37.958Z,9.20
2022-10-04T09:50:18.727Z,7.78
2022-10-04T09:53:02.837Z,7.72
2022-10-04T09:55:47.103Z,7.68
2022-10-04T09:58:16.758Z,7.78
2022-10-04T10:00:48.991Z,6.68
2022-10-04T10:03:34.293Z,6.43
2022-10-04T10:06:09.633Z,6.97
2022-10-04T10:08:52.042Z,7.43
2022-10-04T10:11:37.246Z,7.10
2022-10-04T10:14:21.762Z,6.30
2022-10-04T10:17:08.736Z,5.68
2022-10-04T10:19:44.416Z,6.63
2022-10-04T10:22:40.281Z,7.10
2022-10-04T10:25:30.864Z,6.25
2022-10-04T10:28:16.641Z,6.45
2022-10-04T10:31:04.091Z,5.47
2022-10-04T10:33:33.733Z,6.00
2022-10-04T10:36:09.885Z,5.78
2022-10-04T10:38:42.651Z,5.80
2022-10-04T10:41:30.233Z,5.72
2022-10-04T10:44:19.793Z,5.35
2022-10-04T10:46:58.926Z,5.80
2022-10-04T10:49:37.795Z,5.20
2022-10-04T10:52:25.445Z,5.32
2022-10-04T10:55:04.236Z,5.03
2022-10-04T10:57:58.255Z,4.93
2022-10-04T11:00:34.402Z,4.95
2022-10-04T11:03:23.161Z,5.13
2022-10-04T11:06:14.635Z,4.40
2022-10-04T11:08:59.843Z,5.75
2022-10-04T11:11:36.381Z,4.82
2022-10-04T11:14:06.551Z,5.55
2022-10-04T11:16:35.757Z,4.40
2022-10-04T11:19:06.303Z,4.35
2022-10-04T11:21:51.845Z,4.47
2022-10-04T11:24:34.484Z,3.92
2022-10-04T11:27:00.946Z,4.60
2022-10-04T11:29:30.832Z,4.75
2022-10-04T11:32:00.419Z,4.75
2022-10-04T11:34:51.072Z,5.03
2022-10-04T11:37:36.483Z,4.85
2022-10-04T11:40:02.910Z,5.25
2022-10-04T11:42:49.365Z,5.95
2022-10-04T11:45:38.182Z,5.68
2022-10-04T11:48:12.153Z,5.20
2022-10-04T11:50:41.392Z,5.55
2022-10-04T11:53:08.011Z,5.15
2022-10-04T11:55:37.575Z,5.22
2022-10-04T11:58:12.054Z,5.45
2022-10-04T12:00:58.649Z,5.38
2022-10-04T12:03:35.438Z,5.22
2022-10-04T12:06:11.235Z,5.35
2022-10-04T12:08:53.839Z,4.78
2022-10-04T12:11:26.167Z,4.15
2022-10-04T12:14:09.070Z,4.18
2022-10-04T12:16:59.174Z,3.78
2022-10-04T12:19:39.619Z,3.75
2022-10-04T12:22:06.022Z,4.00
2022-10-04T12:24:51.439Z,4.10
2022-10-04T12:27:24.399Z,3.90
2022-10-04T12:30:10.831Z,4.35
2022-10-04T12:32:37.343Z,4.20
2022-10-04T12:35:22.722Z,4.18
2022-10-04T12:37:52.057Z,4.00
2022-10-04T12:40:22.868Z,4.32
2022-10-04T12:43:18.798Z,4.30
2022-10-04T12:45:52.871Z,4.40
2022-10-04T12:48:23.023Z,3.35
2022-10-04T12:51:09.821Z,4.10
2022-10-04T12:53:41.598Z,4.50
2022-10-04T12:56:08.243Z,4.40
2022-10-04T12:58:34.700Z,4.20
2022-10-04T13:01:20.141Z,4.03
2022-10-04T13:04:05.487Z,3.40
2022-10-04T13:06:43.271Z,4.18
2022-10-04T13:09:16.813Z,3.70
2022-10-04T13:11:53.285Z,3.38
2022-10-04T13:14:32.407Z,4.22
2022-10-04T13:17:27.951Z,4.38
2022-10-04T13:19:57.956Z,3.72
2022-10-04T13:22:51.475Z,3.60
2022-10-04T13:25:26.389Z,4.03
2022-10-04T13:27:59.493Z,3.58
2022-10-04T13:30:27.730Z,3.78
2022-10-04T13:33:09.603Z,3.40
2022-10-04T13:35:42.071Z,3.58
2022-10-04T13:38:27.928Z,3.95
2022-10-04T13:41:03.611Z,3.22
2022-10-04T13:43:49.080Z,3.47
2022-10-04T13:46:23.361Z,4.43
2022-10-04T13:49:13.521Z,3.85
2022-10-04T13:51:43.194Z,4.00
2022-10-04T13:54:47.274Z,3.35
2022-10-04T13:57:16.606Z,3.33
2022-10-04T14:00:04.945Z,3.60
2022-10-04T14:02:43.808Z,3.60
2022-10-04T14:05:16.304Z,3.67
2022-10-04T14:07:45.552Z,3.38
2022-10-04T14:10:15.045Z,6.00
2022-10-04T14:13:00.419Z,3.70
2022-10-04T14:15:29.964Z,3.40
2022-10-04T14:18:00.099Z,3.78
2022-10-04T14:20:56.128Z,3.15
2022-10-04T14:23:48.492Z,3.40
2022-10-04T14:26:25.135Z,3.55
2022-10-04T14:28:54.872Z,3.95
2022-10-04T14:31:40.163Z,3.40
2022-10-04T14:34:15.851Z,3.25
2022-10-04T14:37:01.379Z,3.30
2022-10-04T14:39:27.912Z,3.50
2022-10-04T14:42:06.648Z,4.20
2022-10-04T14:44:45.589Z,3.65
2022-10-04T14:47:14.312Z,3.72
2022-10-04T14:50:00.635Z,7.03
2022-10-04T14:52:34.099Z,3.38
2022-10-04T14:55:23.971Z,3.50
2022-10-04T14:57:52.482Z,3.58
2022-10-04T15:00:20.095Z,3.72
2022-10-04T15:03:13.296Z,2.95
2022-10-04T15:05:45.684Z,3.67
2022-10-04T15:08:22.280Z,3.33
2022-10-04T15:10:51.001Z,3.40
2022-10-04T15:13:24.661Z,3.72
2022-10-04T15:15:58.847Z,3.88
2022-10-04T15:18:27.744Z,3.70
2022-10-04T15:21:09.329Z,3.15
2022-10-04T15:23:39.075Z,3.65
2022-10-04T15:26:28.474Z,3.50
2022-10-04T15:29:01.291Z,5.00
2022-10-04T15:31:37.314Z,5.10
2022-10-04T15:34:13.125Z,5.18
2022-10-04T15:37:02.064Z,3.40
2022-10-04T15:39:34.518Z,6.85
2022-10-04T15:42:14.747Z,4.82
2022-10-04T15:45:00.059Z,4.40
2022-10-04T15:47:31.051Z,4.45
2022-10-04T15:50:04.045Z,3.97
2022-10-04T15:52:53.147Z,5.10
2022-10-04T15:55:31.007Z,4.25
2022-10-04T15:57:58.080Z,3.70
2022-10-04T16:00:29.181Z,3.47
2022-10-04T16:02:59.107Z,3.88
2022-10-04T16:05:37.461Z,3.67
2022-10-04T16:08:16.652Z,3.95
2022-10-04T16:11:02.037Z,3.95
2022-10-04T16:13:58.387Z,3.83
2022-10-04T16:16:35.234Z,4.15
2022-10-04T16:19:30.263Z,4.20
2022-10-04T16:22:15.111Z,4.00
2022-10-04T16:24:51.454Z,3.90
2022-10-04T16:27:24.301Z,4.30
2022-10-04T16:30:21.736Z,4.28
2022-10-04T16:33:01.316Z,4.18
2022-10-04T16:35:29.624Z,3.88
2022-10-04T16:38:05.569Z,4.57
2022-10-04T16:40:59.018Z,4.05
2022-10-04T16:43:29.590Z,4.40
2022-10-04T16:46:15.400Z,4.43
2022-10-04T16:48:48.279Z,4.55
2022-10-04T16:51:17.938Z,4.53
2022-10-04T16:53:59.488Z,6.20
2022-10-04T16:56:29.851Z,6.00
2022-10-04T16:59:00.766Z,6.45
2022-10-04T17:01:43.337Z,6.30
2022-10-04T17:04:19.965Z,6.22
2022-10-04T17:06:46.943Z,6.00
2022-10-04T17:09:19.175Z,5.50
2022-10-04T17:11:57.059Z,5.65
2022-10-04T17:14:29.711Z,5.80
2022-10-04T17:17:00.447Z,5.88
2022-10-04T17:19:37.744Z,5.38
2022-10-04T17:22:17.291Z,7.00
2022-10-04T17:24:43.734Z,6.57
2022-10-04T17:27:16.443Z,5.88
2022-10-04T17:29:53.654Z,7.07
2022-10-04T17:32:28.372Z,6.72
2022-10-04T17:34:54.840Z,7.82
2022-10-04T17:37:40.073Z,7.90
2022-10-04T17:40:12.784Z,9.15
2022-10-04T17:42:54.449Z,9.25
2022-10-04T17:45:27.794Z,9.10
2022-10-04T17:48:24.166Z,8.35
2022-10-04T17:51:21.235Z,8.70
2022-10-04T17:54:09.738Z,8.73
2022-10-04T17:56:39.103Z,8.43
2022-10-04T17:59:09.554Z,8.45
2022-10-04T18:01:38.740Z,8.52
2022-10-04T18:04:13.845Z,8.38
2022-10-04T18:06:43.532Z,8.07
2022-10-04T18:09:29.123Z,7.25
2022-10-04T18:11:58.360Z,7.80
2022-10-04T18:14:27.762Z,8.80
2022-10-04T18:16:54.642Z,8.30
2022-10-04T18:19:39.957Z,7.75
2022-10-04T18:22:14.963Z,7.40
2022-10-04T18:24:46.661Z,8.07
2022-10-04T18:27:18.467Z,9.18
2022-10-04T18:30:00.248Z,8.50
2022-10-04T18:32:27.018Z,8.07
2022-10-04T18:34:57.855Z,8.80
2022-10-04T18:37:39.157Z,8.50
2022-10-04T18:40:25.667Z,8.50
2022-10-04T18:42:52.363Z,8.73
2022-10-04T18:45:21.083Z,8.75
2022-10-04T18:47:49.577Z,8.50
2022-10-04T18:50:16.371Z,8.15
2022-10-04T18:53:03.106Z,8.75
2022-10-04T18:55:32.450Z,9.05
2022-10-04T18:58:42.879Z,10.50
2022-10-04T19:01:31.100Z,9.95
2022-10-04T19:04:01.061Z,10.10
2022-10-04T19:06:32.813Z,10.38
2022-10-04T19:08:59.250Z,9.38
2022-10-04T19:11:33.879Z,10.70
2022-10-04T19:14:24.827Z,9.55
2022-10-04T19:16:51.300Z,10.10
2022-10-04T19:19:17.763Z,10.93
2022-10-04T19:21:54.827Z,11.80
2022-10-04T19:24:40.079Z,12.70
2022-10-04T19:27:15.114Z,13.15
2022-10-04T19:29:55.835Z,12.55
2022-10-04T19:32:41.625Z,13.90
2022-10-04T19:35:14.594Z,13.88
2022-10-04T19:37:45.071Z,12.52
2022-10-04T19:40:17.725Z,11.32
2022-10-04T19:42:57.277Z,11.85
2022-10-04T19:45:26.931Z,12.23
2022-10-04T19:47:58.327Z,11.95
2022-10-04T19:50:31.248Z,11.13
2022-10-04T19:53:16.362Z,11.23
2022-10-04T19:55:43.869Z,12.93
2022-10-04T19:58:12.036Z,12.98
2022-10-04T20:00:38.677Z,14.38
2022-10-04T20:03:14.428Z,14.00
2022-10-04T20:05:51.754Z,14.75
2022-10-04T20:08:38.170Z,18.30
2022-10-04T20:11:19.129Z,17.85
2022-10-04T20:13:46.024Z,17.75
2022-10-04T20:16:12.737Z,16.92
2022-10-04T20:18:39.927Z,16.42
2022-10-04T20:21:09.461Z,17.10
2022-10-04T20:23:37.011Z,19.00
2022-10-04T20:26:07.752Z,19.52
2022-10-04T20:28:40.005Z,24.13
2022-10-04T20:31:07.397Z,28.73
2022-10-04T20:33:33.811Z,36.33
2022-10-04T20:36:05.708Z,37.53
2022-10-04T20:38:44.421Z,36.63
2022-10-04T20:41:26.100Z,33.65
2022-10-04T20:43:53.452Z,31.45
2022-10-04T20:46:27.076Z,31.08
2022-10-04T20:48:54.326Z,30.08
2022-10-04T20:51:25.795Z,19.83
2022-10-04T20:53:52.396Z,22.25
2022-10-04T20:56:24.321Z,18.50
2022-10-04T20:58:51.977Z,18.52
2022-10-04T21:01:38.392Z,18.13
2022-10-04T21:04:30.846Z,21.77
2022-10-04T21:06:58.421Z,20.42
2022-10-04T21:09:25.591Z,19.10
2022-10-04T21:11:52.688Z,16.77
2022-10-04T21:14:23.444Z,15.25
2022-10-04T21:16:51.369Z,16.13
2022-10-04T21:19:33.913Z,15.13
2022-10-04T21:22:01.523Z,16.05
2022-10-04T21:24:38.774Z,15.13
2022-10-04T21:27:08.498Z,17.02
2022-10-04T21:29:35.197Z,14.52
2022-10-04T21:32:01.863Z,13.73
2022-10-04T21:34:51.901Z,15.88
2022-10-04T21:37:15.036Z,14.70
2022-10-04T21:39:41.541Z,14.45
2022-10-04T21:42:08.018Z,13.88
2022-10-04T21:44:34.429Z,14.30
2022-10-04T21:47:00.943Z,12.50
2022-10-04T21:49:27.411Z,13.05
2022-10-04T21:51:53.939Z,14.25
2022-10-04T21:54:20.467Z,14.52
2022-10-04T21:56:47.380Z,12.32
2022-10-04T21:59:14.163Z,12.07
2022-10-04T22:01:40.585Z,89.93
2022-10-04T22:04:07.022Z,13.43
2022-10-04T22:06:33.495Z,12.50
2022-10-04T22:08:59.964Z,10.85
2022-10-04T22:11:26.486Z,10.07
2022-10-04T22:13:52.979Z,16.58
2022-10-04T22:16:19.430Z,10.60
2022-10-04T22:18:46.040Z,10.23
2022-10-04T22:21:12.790Z,10.23
2022-10-04T22:23:40.641Z,10.90
2022-10-04T22:26:17.750Z,9.10
2022-10-04T22:28:53.933Z,9.73
2022-10-04T22:31:21.659Z,8.88
2022-10-04T22:33:52.000Z,10.55
2022-10-04T22:36:23.366Z,8.75
2022-10-04T22:39:02.123Z,8.98
2022-10-04T22:41:31.343Z,10.90
2022-10-04T22:44:00.038Z,10.30
2022-10-04T22:46:32.329Z,9.68
2022-10-04T22:48:58.906Z,9.32
2022-10-04T22:51:28.164Z,8.32
2022-10-04T22:53:55.079Z,8.38
2022-10-04T22:56:21.499Z,8.98
2022-10-04T22:58:48.029Z,8.52
2022-10-04T23:01:15.957Z,9.02
2022-10-04T23:03:46.497Z,8.40
2022-10-04T23:06:14.349Z,8.18
2022-10-04T23:08:41.697Z,7.75
2022-10-04T23:11:08.618Z,8.90
2022-10-04T23:13:35.665Z,9.32
2022-10-04T23:16:17.259Z,8.52
2022-10-04T23:18:43.772Z,8.88
2022-10-04T23:21:30.960Z,8.32
2022-10-04T23:24:01.400Z,8.98
2022-10-04T23:26:34.439Z,9.25
2022-10-04T23:29:00.947Z,11.70
2022-10-04T23:31:27.608Z,9.23
2022-10-04T23:33:55.725Z,9.25
2022-10-04T23:36:22.656Z,9.10
2022-10-04T23:38:51.019Z,9.63
2022-10-04T23:41:19.109Z,10.95
2022-10-04T23:43:46.143Z,9.25
2022-10-04T23:46:15.480Z,8.90
2022-10-04T23:48:42.730Z,9.73
2022-10-04T23:51:11.978Z,8.85
2022-10-04T23:53:40.582Z,9.50
2022-10-04T23:56:18.400Z,8.23
2022-10-04T23:58:45.206Z,9.13
